sensor_id;sensor_type;location;lat;lon;timestamp;temperature;humidity
23188;DHT22;11762;59.878;17.686;2023-07-13T00:01:13;15.20;99.90
23188;DHT22;11762;59.878;17.686;2023-07-13T00:03:41;15.10;99.90
23188;DHT22;11762;59.878;17.686;2023-07-13T00:06:09;15.00;99.90
23188;DHT22;11762;59.878;17.686;2023-07-13T00:08:36;15.00;99.90
23188;DHT22;11762;59.878;17.686;2023-07-13T00:11:04;14.90;99.90
23188;DHT22;11762;59.878;17.686;2023-07-13T00:13:32;14.90;99.90
23188;DHT22;11762;59.878;17.686;2023-07-13T00:15:59;14.90;99.90
23188;DHT22;11762;59.878;17.686;2023-07-13T00:18:26;14.80;99.90
23188;DHT22;11762;59.878;17.686;2023-07-13T00:20:57;14.80;99.90
23188;DHT22;11762;59.878;17.686;2023-07-13T00:23:30;14.80;99.90
23188;DHT22;11762;59.878;17.686;2023-07-13T00:25:59;14.80;99.90
23188;DHT22;11762;59.878;17.686;2023-07-13T00:28:26;14.90;99.90
23188;DHT22;11762;59.878;17.686;2023-07-13T00:30:53;14.80;99.90
23188;DHT22;11762;59.878;17.686;2023-07-13T00:33:21;14.80;99.90
23188;DHT22;11762;59.878;17.686;2023-07-13T00:35:49;14.80;99.90
23188;DHT22;11762;59.878;17.686;2023-07-13T00:38:17;14.90;99.90
23188;DHT22;11762;59.878;17.686;2023-07-13T00:40:44;14.90;99.90
23188;DHT22;11762;59.878;17.686;2023-07-13T00:43:13;14.90;99.90
23188;DHT22;11762;59.878;17.686;2023-07-13T00:46:20;14.90;99.90
23188;DHT22;11762;59.878;17.686;2023-07-13T00:48:48;14.90;99.90
23188;DHT22;11762;59.878;17.686;2023-07-13T00:51:19;15.00;99.90
23188;DHT22;11762;59.878;17.686;2023-07-13T00:53:50;15.00;99.90
23188;DHT22;11762;59.878;17.686;2023-07-13T00:56:17;15.00;99.90
23188;DHT22;11762;59.878;17.686;2023-07-13T00:58:44;15.00;99.90
23188;DHT22;11762;59.878;17.686;2023-07-13T01:01:12;15.00;99.90
23188;DHT22;11762;59.878;17.686;2023-07-13T01:03:39;15.00;99.90
23188;DHT22;11762;59.878;17.686;2023-07-13T01:06:07;15.00;99.90
23188;DHT22;11762;59.878;17.686;2023-07-13T01:08:34;15.00;99.90
23188;DHT22;11762;59.878;17.686;2023-07-13T01:11:03;15.00;99.90
23188;DHT22;11762;59.878;17.686;2023-07-13T01:13:30;15.00;99.90
23188;DHT22;11762;59.878;17.686;2023-07-13T01:15:59;15.00;99.90
23188;DHT22;11762;59.878;17.686;2023-07-13T01:18:29;15.00;99.90
23188;DHT22;11762;59.878;17.686;2023-07-13T01:20:59;15.00;99.90
23188;DHT22;11762;59.878;17.686;2023-07-13T01:23:27;15.10;99.90
23188;DHT22;11762;59.878;17.686;2023-07-13T01:25:54;15.10;99.90
23188;DHT22;11762;59.878;17.686;2023-07-13T01:28:23;15.10;99.90
23188;DHT22;11762;59.878;17.686;2023-07-13T01:30:53;15.10;99.90
23188;DHT22;11762;59.878;17.686;2023-07-13T01:33:21;15.10;99.90
23188;DHT22;11762;59.878;17.686;2023-07-13T01:35:48;15.00;99.90
23188;DHT22;11762;59.878;17.686;2023-07-13T01:38:19;15.00;99.90
23188;DHT22;11762;59.878;17.686;2023-07-13T01:40:46;15.00;99.90
23188;DHT22;11762;59.878;17.686;2023-07-13T01:43:14;15.00;99.90
23188;DHT22;11762;59.878;17.686;2023-07-13T01:45:41;14.90;99.90
23188;DHT22;11762;59.878;17.686;2023-07-13T01:48:09;14.90;99.90
23188;DHT22;11762;59.878;17.686;2023-07-13T01:50:37;14.90;99.90
23188;DHT22;11762;59.878;17.686;2023-07-13T01:53:04;14.80;99.90
23188;DHT22;11762;59.878;17.686;2023-07-13T01:55:34;14.70;99.90
23188;DHT22;11762;59.878;17.686;2023-07-13T01:58:01;14.60;99.90
23188;DHT22;11762;59.878;17.686;2023-07-13T02:00:28;14.50;99.90
23188;DHT22;11762;59.878;17.686;2023-07-13T02:02:55;14.50;99.90
23188;DHT22;11762;59.878;17.686;2023-07-13T02:05:22;14.50;99.90
23188;DHT22;11762;59.878;17.686;2023-07-13T02:07:49;14.40;99.90
23188;DHT22;11762;59.878;17.686;2023-07-13T02:10:17;14.30;99.90
23188;DHT22;11762;59.878;17.686;2023-07-13T02:12:47;14.30;99.90
23188;DHT22;11762;59.878;17.686;2023-07-13T02:15:15;14.30;99.90
23188;DHT22;11762;59.878;17.686;2023-07-13T02:17:42;14.20;99.90
23188;DHT22;11762;59.878;17.686;2023-07-13T02:20:09;14.20;99.90
23188;DHT22;11762;59.878;17.686;2023-07-13T02:22:36;14.20;99.90
23188;DHT22;11762;59.878;17.686;2023-07-13T02:25:04;14.10;99.90
23188;DHT22;11762;59.878;17.686;2023-07-13T02:27:31;14.10;99.90
23188;DHT22;11762;59.878;17.686;2023-07-13T02:30:00;14.10;99.90
23188;DHT22;11762;59.878;17.686;2023-07-13T02:32:27;14.10;99.90
23188;DHT22;11762;59.878;17.686;2023-07-13T02:34:54;14.10;99.90
23188;DHT22;11762;59.878;17.686;2023-07-13T02:37:21;14.10;99.90
23188;DHT22;11762;59.878;17.686;2023-07-13T02:39:48;14.10;99.90
23188;DHT22;11762;59.878;17.686;2023-07-13T02:42:15;14.10;99.90
23188;DHT22;11762;59.878;17.686;2023-07-13T02:44:42;14.10;99.90
23188;DHT22;11762;59.878;17.686;2023-07-13T02:47:11;14.10;99.90
23188;DHT22;11762;59.878;17.686;2023-07-13T02:49:38;14.10;99.90
23188;DHT22;11762;59.878;17.686;2023-07-13T02:52:06;14.10;99.90
23188;DHT22;11762;59.878;17.686;2023-07-13T02:54:34;14.10;99.90
23188;DHT22;11762;59.878;17.686;2023-07-13T02:57:01;14.10;99.90
23188;DHT22;11762;59.878;17.686;2023-07-13T02:59:28;14.10;99.90
23188;DHT22;11762;59.878;17.686;2023-07-13T03:01:55;14.10;99.90
23188;DHT22;11762;59.878;17.686;2023-07-13T03:04:23;14.10;99.90
23188;DHT22;11762;59.878;17.686;2023-07-13T03:06:50;14.10;99.90
23188;DHT22;11762;59.878;17.686;2023-07-13T03:09:17;14.10;99.90
23188;DHT22;11762;59.878;17.686;2023-07-13T03:11:44;14.10;99.90
23188;DHT22;11762;59.878;17.686;2023-07-13T03:14:11;14.10;99.90
23188;DHT22;11762;59.878;17.686;2023-07-13T03:16:38;14.10;99.90
23188;DHT22;11762;59.878;17.686;2023-07-13T03:19:05;14.20;99.90
23188;DHT22;11762;59.878;17.686;2023-07-13T03:21:34;14.10;99.90
23188;DHT22;11762;59.878;17.686;2023-07-13T03:24:01;14.20;99.90
23188;DHT22;11762;59.878;17.686;2023-07-13T03:26:28;14.20;99.90
23188;DHT22;11762;59.878;17.686;2023-07-13T03:28:55;14.60;99.90
23188;DHT22;11762;59.878;17.686;2023-07-13T03:31:25;14.80;99.90
23188;DHT22;11762;59.878;17.686;2023-07-13T03:33:52;15.00;99.90
23188;DHT22;11762;59.878;17.686;2023-07-13T03:36:21;15.10;99.90
23188;DHT22;11762;59.878;17.686;2023-07-13T03:38:52;15.20;99.90
23188;DHT22;11762;59.878;17.686;2023-07-13T03:41:20;15.20;99.90
23188;DHT22;11762;59.878;17.686;2023-07-13T03:43:47;15.40;99.90
23188;DHT22;11762;59.878;17.686;2023-07-13T03:46:14;15.70;99.90
23188;DHT22;11762;59.878;17.686;2023-07-13T03:48:43;15.80;99.90
23188;DHT22;11762;59.878;17.686;2023-07-13T03:51:11;15.90;99.90
23188;DHT22;11762;59.878;17.686;2023-07-13T03:53:39;15.80;99.90
23188;DHT22;11762;59.878;17.686;2023-07-13T03:56:09;15.80;99.90
23188;DHT22;11762;59.878;17.686;2023-07-13T03:58:37;15.70;99.90
23188;DHT22;11762;59.878;17.686;2023-07-13T04:01:07;15.70;99.90
23188;DHT22;11762;59.878;17.686;2023-07-13T04:03:35;15.90;99.90
23188;DHT22;11762;59.878;17.686;2023-07-13T04:06:04;16.00;99.90
23188;DHT22;11762;59.878;17.686;2023-07-13T04:08:36;16.00;99.90
23188;DHT22;11762;59.878;17.686;2023-07-13T04:11:04;16.00;99.90
23188;DHT22;11762;59.878;17.686;2023-07-13T04:13:33;15.90;99.90
23188;DHT22;11762;59.878;17.686;2023-07-13T04:16:00;15.90;99.90
23188;DHT22;11762;59.878;17.686;2023-07-13T04:18:27;16.00;99.90
23188;DHT22;11762;59.878;17.686;2023-07-13T04:20:54;16.10;99.90
23188;DHT22;11762;59.878;17.686;2023-07-13T04:23:21;16.30;99.90
23188;DHT22;11762;59.878;17.686;2023-07-13T04:25:51;16.20;99.90
23188;DHT22;11762;59.878;17.686;2023-07-13T04:28:18;16.20;99.90
23188;DHT22;11762;59.878;17.686;2023-07-13T04:30:47;16.20;99.90
23188;DHT22;11762;59.878;17.686;2023-07-13T04:33:14;16.30;99.90
23188;DHT22;11762;59.878;17.686;2023-07-13T04:35:42;16.40;99.90
23188;DHT22;11762;59.878;17.686;2023-07-13T04:38:12;16.50;99.90
23188;DHT22;11762;59.878;17.686;2023-07-13T04:40:42;16.70;99.90
23188;DHT22;11762;59.878;17.686;2023-07-13T04:43:10;16.70;99.90
23188;DHT22;11762;59.878;17.686;2023-07-13T04:45:37;16.70;99.90
23188;DHT22;11762;59.878;17.686;2023-07-13T04:48:05;16.70;99.90
23188;DHT22;11762;59.878;17.686;2023-07-13T04:50:33;16.70;99.90
23188;DHT22;11762;59.878;17.686;2023-07-13T04:53:02;16.90;99.90
23188;DHT22;11762;59.878;17.686;2023-07-13T04:55:30;16.90;99.90
23188;DHT22;11762;59.878;17.686;2023-07-13T04:57:58;16.90;99.90
23188;DHT22;11762;59.878;17.686;2023-07-13T05:00:25;17.00;99.90
23188;DHT22;11762;59.878;17.686;2023-07-13T05:02:54;17.60;99.90
23188;DHT22;11762;59.878;17.686;2023-07-13T05:05:22;18.20;99.90
23188;DHT22;11762;59.878;17.686;2023-07-13T05:07:49;18.60;99.90
23188;DHT22;11762;59.878;17.686;2023-07-13T05:10:16;18.90;99.90
23188;DHT22;11762;59.878;17.686;2023-07-13T05:12:43;19.00;99.90
23188;DHT22;11762;59.878;17.686;2023-07-13T05:15:11;19.20;99.90
23188;DHT22;11762;59.878;17.686;2023-07-13T05:17:38;18.90;99.90
23188;DHT22;11762;59.878;17.686;2023-07-13T05:20:06;18.70;99.90
23188;DHT22;11762;59.878;17.686;2023-07-13T05:22:35;18.80;99.90
23188;DHT22;11762;59.878;17.686;2023-07-13T05:25:04;18.80;99.90
23188;DHT22;11762;59.878;17.686;2023-07-13T05:27:32;18.70;99.90
23188;DHT22;11762;59.878;17.686;2023-07-13T05:29:59;18.60;99.90
23188;DHT22;11762;59.878;17.686;2023-07-13T05:32:26;18.60;99.90
23188;DHT22;11762;59.878;17.686;2023-07-13T05:34:53;18.40;99.90
23188;DHT22;11762;59.878;17.686;2023-07-13T05:37:20;18.20;99.90
23188;DHT22;11762;59.878;17.686;2023-07-13T05:39:49;17.90;99.90
23188;DHT22;11762;59.878;17.686;2023-07-13T05:42:16;17.70;99.90
23188;DHT22;11762;59.878;17.686;2023-07-13T05:44:43;17.30;99.90
23188;DHT22;11762;59.878;17.686;2023-07-13T05:47:10;17.10;99.90
23188;DHT22;11762;59.878;17.686;2023-07-13T05:49:37;16.90;99.90
23188;DHT22;11762;59.878;17.686;2023-07-13T05:52:05;16.80;99.90
23188;DHT22;11762;59.878;17.686;2023-07-13T05:54:32;16.70;99.90
23188;DHT22;11762;59.878;17.686;2023-07-13T05:57:00;16.60;99.90
23188;DHT22;11762;59.878;17.686;2023-07-13T05:59:27;16.60;99.90
23188;DHT22;11762;59.878;17.686;2023-07-13T06:01:54;16.50;99.90
23188;DHT22;11762;59.878;17.686;2023-07-13T06:04:21;16.40;99.90
23188;DHT22;11762;59.878;17.686;2023-07-13T06:06:48;16.30;99.90
23188;DHT22;11762;59.878;17.686;2023-07-13T06:09:16;16.30;99.90
23188;DHT22;11762;59.878;17.686;2023-07-13T06:11:43;16.30;99.90
23188;DHT22;11762;59.878;17.686;2023-07-13T06:14:12;16.30;99.90
23188;DHT22;11762;59.878;17.686;2023-07-13T06:16:39;16.40;99.90
23188;DHT22;11762;59.878;17.686;2023-07-13T06:19:06;16.40;99.90
23188;DHT22;11762;59.878;17.686;2023-07-13T06:21:33;16.40;99.90
23188;DHT22;11762;59.878;17.686;2023-07-13T06:24:00;16.40;99.90
23188;DHT22;11762;59.878;17.686;2023-07-13T06:26:27;16.50;99.90
23188;DHT22;11762;59.878;17.686;2023-07-13T06:28:55;16.60;99.90
23188;DHT22;11762;59.878;17.686;2023-07-13T06:31:23;16.50;99.90
23188;DHT22;11762;59.878;17.686;2023-07-13T06:33:50;16.50;99.90
23188;DHT22;11762;59.878;17.686;2023-07-13T06:36:17;16.50;99.90
23188;DHT22;11762;59.878;17.686;2023-07-13T06:38:45;16.50;99.90
23188;DHT22;11762;59.878;17.686;2023-07-13T06:41:11;16.60;99.90
23188;DHT22;11762;59.878;17.686;2023-07-13T06:43:38;16.70;99.90
23188;DHT22;11762;59.878;17.686;2023-07-13T06:46:05;16.80;99.90
23188;DHT22;11762;59.878;17.686;2023-07-13T06:48:34;17.00;99.90
23188;DHT22;11762;59.878;17.686;2023-07-13T06:51:02;17.20;99.90
23188;DHT22;11762;59.878;17.686;2023-07-13T06:53:29;17.30;99.90
23188;DHT22;11762;59.878;17.686;2023-07-13T06:55:56;17.30;99.90
23188;DHT22;11762;59.878;17.686;2023-07-13T06:58:23;17.30;99.90
23188;DHT22;11762;59.878;17.686;2023-07-13T07:00:50;17.30;99.90
23188;DHT22;11762;59.878;17.686;2023-07-13T07:03:18;17.40;99.90
23188;DHT22;11762;59.878;17.686;2023-07-13T07:05:46;17.40;99.90
23188;DHT22;11762;59.878;17.686;2023-07-13T07:08:13;17.40;99.90
23188;DHT22;11762;59.878;17.686;2023-07-13T07:10:40;17.40;99.90
23188;DHT22;11762;59.878;17.686;2023-07-13T07:13:08;17.40;99.90
23188;DHT22;11762;59.878;17.686;2023-07-13T07:15:36;17.40;99.90
23188;DHT22;11762;59.878;17.686;2023-07-13T07:18:03;17.70;99.90
23188;DHT22;11762;59.878;17.686;2023-07-13T07:20:30;18.30;99.90
23188;DHT22;11762;59.878;17.686;2023-07-13T07:22:59;18.70;99.90
23188;DHT22;11762;59.878;17.686;2023-07-13T07:25:26;18.60;99.90
23188;DHT22;11762;59.878;17.686;2023-07-13T07:27:57;18.90;99.90
23188;DHT22;11762;59.878;17.686;2023-07-13T07:30:24;19.30;99.90
23188;DHT22;11762;59.878;17.686;2023-07-13T07:32:51;19.50;99.90
23188;DHT22;11762;59.878;17.686;2023-07-13T07:35:18;19.30;99.90
23188;DHT22;11762;59.878;17.686;2023-07-13T07:37:46;19.10;99.90
23188;DHT22;11762;59.878;17.686;2023-07-13T07:40:15;18.90;99.90
23188;DHT22;11762;59.878;17.686;2023-07-13T07:42:42;19.00;99.90
23188;DHT22;11762;59.878;17.686;2023-07-13T07:45:09;19.10;99.90
23188;DHT22;11762;59.878;17.686;2023-07-13T07:47:37;19.20;99.90
23188;DHT22;11762;59.878;17.686;2023-07-13T07:50:05;19.30;99.90
23188;DHT22;11762;59.878;17.686;2023-07-13T07:52:32;19.30;99.90
23188;DHT22;11762;59.878;17.686;2023-07-13T07:54:59;19.40;99.90
23188;DHT22;11762;59.878;17.686;2023-07-13T07:57:27;19.40;99.90
23188;DHT22;11762;59.878;17.686;2023-07-13T07:59:54;19.60;99.90
23188;DHT22;11762;59.878;17.686;2023-07-13T08:02:21;20.00;99.90
23188;DHT22;11762;59.878;17.686;2023-07-13T08:04:48;20.10;99.90
23188;DHT22;11762;59.878;17.686;2023-07-13T08:07:15;20.00;99.90
23188;DHT22;11762;59.878;17.686;2023-07-13T08:09:42;19.90;99.90
23188;DHT22;11762;59.878;17.686;2023-07-13T08:12:09;19.50;99.90
23188;DHT22;11762;59.878;17.686;2023-07-13T08:14:38;19.50;99.90
23188;DHT22;11762;59.878;17.686;2023-07-13T08:17:05;19.40;99.90
23188;DHT22;11762;59.878;17.686;2023-07-13T08:19:32;19.30;99.90
23188;DHT22;11762;59.878;17.686;2023-07-13T08:21:59;19.50;99.90
23188;DHT22;11762;59.878;17.686;2023-07-13T08:24:26;19.50;99.90
23188;DHT22;11762;59.878;17.686;2023-07-13T08:26:53;19.50;99.90
23188;DHT22;11762;59.878;17.686;2023-07-13T08:29:20;19.70;99.90
23188;DHT22;11762;59.878;17.686;2023-07-13T08:31:49;19.80;99.90
23188;DHT22;11762;59.878;17.686;2023-07-13T08:34:16;19.90;99.90
23188;DHT22;11762;59.878;17.686;2023-07-13T08:36:43;19.80;99.90
23188;DHT22;11762;59.878;17.686;2023-07-13T08:39:09;19.60;99.90
23188;DHT22;11762;59.878;17.686;2023-07-13T08:41:37;19.60;99.90
23188;DHT22;11762;59.878;17.686;2023-07-13T08:44:06;19.40;99.90
23188;DHT22;11762;59.878;17.686;2023-07-13T08:46:40;19.30;99.90
23188;DHT22;11762;59.878;17.686;2023-07-13T08:49:13;19.30;99.90
23188;DHT22;11762;59.878;17.686;2023-07-13T08:51:44;19.40;99.90
23188;DHT22;11762;59.878;17.686;2023-07-13T08:54:20;19.50;99.90
23188;DHT22;11762;59.878;17.686;2023-07-13T08:56:49;19.50;99.90
23188;DHT22;11762;59.878;17.686;2023-07-13T08:59:20;19.40;99.90
23188;DHT22;11762;59.878;17.686;2023-07-13T09:01:58;19.50;99.90
23188;DHT22;11762;59.878;17.686;2023-07-13T09:04:32;19.60;99.90
23188;DHT22;11762;59.878;17.686;2023-07-13T09:07:07;19.50;99.90
23188;DHT22;11762;59.878;17.686;2023-07-13T09:09:48;19.50;99.90
23188;DHT22;11762;59.878;17.686;2023-07-13T09:12:26;19.60;99.90
23188;DHT22;11762;59.878;17.686;2023-07-13T09:14:57;19.80;99.90
23188;DHT22;11762;59.878;17.686;2023-07-13T09:17:29;19.80;99.90
23188;DHT22;11762;59.878;17.686;2023-07-13T09:20:00;19.70;99.90
23188;DHT22;11762;59.878;17.686;2023-07-13T09:22:31;19.40;99.90
23188;DHT22;11762;59.878;17.686;2023-07-13T09:25:05;19.20;99.90
23188;DHT22;11762;59.878;17.686;2023-07-13T09:27:41;19.30;99.90
23188;DHT22;11762;59.878;17.686;2023-07-13T09:30:24;19.50;99.90
23188;DHT22;11762;59.878;17.686;2023-07-13T09:32:54;19.60;99.90
23188;DHT22;11762;59.878;17.686;2023-07-13T09:35:27;19.90;99.90
23188;DHT22;11762;59.878;17.686;2023-07-13T09:37:59;19.80;99.90
23188;DHT22;11762;59.878;17.686;2023-07-13T09:40:40;19.60;99.90
23188;DHT22;11762;59.878;17.686;2023-07-13T09:43:13;19.50;99.90
23188;DHT22;11762;59.878;17.686;2023-07-13T09:45:40;19.20;99.90
23188;DHT22;11762;59.878;17.686;2023-07-13T09:48:13;19.10;99.90
23188;DHT22;11762;59.878;17.686;2023-07-13T09:50:42;19.10;99.90
23188;DHT22;11762;59.878;17.686;2023-07-13T09:53:14;18.90;99.90
23188;DHT22;11762;59.878;17.686;2023-07-13T09:55:43;18.80;99.90
23188;DHT22;11762;59.878;17.686;2023-07-13T09:58:13;18.70;99.90
23188;DHT22;11762;59.878;17.686;2023-07-13T10:00:41;19.00;99.90
23188;DHT22;11762;59.878;17.686;2023-07-13T10:03:19;19.50;99.90
23188;DHT22;11762;59.878;17.686;2023-07-13T10:05:51;20.00;99.90
23188;DHT22;11762;59.878;17.686;2023-07-13T10:08:23;20.10;99.90
23188;DHT22;11762;59.878;17.686;2023-07-13T10:10:58;20.20;99.90
23188;DHT22;11762;59.878;17.686;2023-07-13T10:13:35;20.20;99.90
23188;DHT22;11762;59.878;17.686;2023-07-13T10:16:04;20.30;99.90
23188;DHT22;11762;59.878;17.686;2023-07-13T10:18:46;20.40;99.90
23188;DHT22;11762;59.878;17.686;2023-07-13T10:21:18;20.60;99.90
23188;DHT22;11762;59.878;17.686;2023-07-13T10:23:54;20.50;99.90
23188;DHT22;11762;59.878;17.686;2023-07-13T10:26:33;20.10;99.90
23188;DHT22;11762;59.878;17.686;2023-07-13T10:29:04;19.80;99.90
23188;DHT22;11762;59.878;17.686;2023-07-13T10:31:34;19.60;99.90
23188;DHT22;11762;59.878;17.686;2023-07-13T10:34:03;19.40;99.90
23188;DHT22;11762;59.878;17.686;2023-07-13T10:36:40;19.30;99.90
23188;DHT22;11762;59.878;17.686;2023-07-13T10:39:14;19.40;99.90
23188;DHT22;11762;59.878;17.686;2023-07-13T10:41:45;19.50;99.90
23188;DHT22;11762;59.878;17.686;2023-07-13T10:44:20;19.90;99.90
23188;DHT22;11762;59.878;17.686;2023-07-13T10:46:52;20.10;99.90
23188;DHT22;11762;59.878;17.686;2023-07-13T10:49:20;20.30;99.90
23188;DHT22;11762;59.878;17.686;2023-07-13T10:51:50;20.30;99.90
23188;DHT22;11762;59.878;17.686;2023-07-13T10:54:20;20.20;99.90
23188;DHT22;11762;59.878;17.686;2023-07-13T10:56:52;20.20;99.90
23188;DHT22;11762;59.878;17.686;2023-07-13T10:59:25;20.60;99.90
23188;DHT22;11762;59.878;17.686;2023-07-13T11:01:56;20.90;99.90
23188;DHT22;11762;59.878;17.686;2023-07-13T11:04:25;20.90;99.90
23188;DHT22;11762;59.878;17.686;2023-07-13T11:06:57;21.00;99.90
23188;DHT22;11762;59.878;17.686;2023-07-13T11:09:35;20.80;99.90
23188;DHT22;11762;59.878;17.686;2023-07-13T11:12:07;20.50;99.90
23188;DHT22;11762;59.878;17.686;2023-07-13T11:14:43;20.50;99.90
23188;DHT22;11762;59.878;17.686;2023-07-13T11:17:34;20.50;99.90
23188;DHT22;11762;59.878;17.686;2023-07-13T11:20:41;20.80;99.90
23188;DHT22;11762;59.878;17.686;2023-07-13T11:23:28;20.90;99.90
23188;DHT22;11762;59.878;17.686;2023-07-13T11:25:56;20.80;99.90
23188;DHT22;11762;59.878;17.686;2023-07-13T11:28:27;20.70;99.90
23188;DHT22;11762;59.878;17.686;2023-07-13T11:31:02;20.70;99.90
23188;DHT22;11762;59.878;17.686;2023-07-13T11:33:56;20.80;99.90
23188;DHT22;11762;59.878;17.686;2023-07-13T11:36:29;21.00;99.90
23188;DHT22;11762;59.878;17.686;2023-07-13T11:39:02;21.20;99.90
23188;DHT22;11762;59.878;17.686;2023-07-13T11:41:32;21.30;99.90
23188;DHT22;11762;59.878;17.686;2023-07-13T11:44:10;21.50;99.90
23188;DHT22;11762;59.878;17.686;2023-07-13T11:46:38;21.60;99.90
23188;DHT22;11762;59.878;17.686;2023-07-13T11:49:05;21.80;99.90
23188;DHT22;11762;59.878;17.686;2023-07-13T11:51:34;22.00;99.90
23188;DHT22;11762;59.878;17.686;2023-07-13T11:54:05;22.10;99.90
23188;DHT22;11762;59.878;17.686;2023-07-13T11:56:33;22.10;99.90
23188;DHT22;11762;59.878;17.686;2023-07-13T11:59:05;22.20;99.90
23188;DHT22;11762;59.878;17.686;2023-07-13T12:01:33;22.20;99.90
23188;DHT22;11762;59.878;17.686;2023-07-13T12:04:03;22.10;99.90
23188;DHT22;11762;59.878;17.686;2023-07-13T12:06:33;22.10;99.90
23188;DHT22;11762;59.878;17.686;2023-07-13T12:09:11;22.10;99.90
23188;DHT22;11762;59.878;17.686;2023-07-13T12:11:41;22.10;99.90
23188;DHT22;11762;59.878;17.686;2023-07-13T12:14:14;22.20;99.90
23188;DHT22;11762;59.878;17.686;2023-07-13T12:16:42;22.40;99.90
23188;DHT22;11762;59.878;17.686;2023-07-13T12:19:17;22.40;99.90
23188;DHT22;11762;59.878;17.686;2023-07-13T12:21:46;22.20;99.90
23188;DHT22;11762;59.878;17.686;2023-07-13T12:24:19;22.20;99.90
23188;DHT22;11762;59.878;17.686;2023-07-13T12:26:51;22.20;99.90
23188;DHT22;11762;59.878;17.686;2023-07-13T12:29:18;22.40;99.90
23188;DHT22;11762;59.878;17.686;2023-07-13T12:31:47;22.70;99.90
23188;DHT22;11762;59.878;17.686;2023-07-13T12:34:16;22.80;99.90
23188;DHT22;11762;59.878;17.686;2023-07-13T12:36:47;22.80;99.90
23188;DHT22;11762;59.878;17.686;2023-07-13T12:39:19;22.60;99.90
23188;DHT22;11762;59.878;17.686;2023-07-13T12:41:47;22.40;99.90
23188;DHT22;11762;59.878;17.686;2023-07-13T12:44:17;22.00;99.90
23188;DHT22;11762;59.878;17.686;2023-07-13T12:46:54;22.10;99.90
23188;DHT22;11762;59.878;17.686;2023-07-13T12:49:25;22.30;99.90
23188;DHT22;11762;59.878;17.686;2023-07-13T12:51:56;22.30;99.90
23188;DHT22;11762;59.878;17.686;2023-07-13T12:54:27;22.40;99.90
23188;DHT22;11762;59.878;17.686;2023-07-13T12:56:57;22.40;99.90
23188;DHT22;11762;59.878;17.686;2023-07-13T12:59:29;22.20;99.90
23188;DHT22;11762;59.878;17.686;2023-07-13T13:01:59;22.00;99.90
23188;DHT22;11762;59.878;17.686;2023-07-13T13:04:26;22.20;99.90
23188;DHT22;11762;59.878;17.686;2023-07-13T13:07:02;22.40;99.90
23188;DHT22;11762;59.878;17.686;2023-07-13T13:09:30;22.50;99.90
23188;DHT22;11762;59.878;17.686;2023-07-13T13:11:58;22.30;99.90
23188;DHT22;11762;59.878;17.686;2023-07-13T13:14:25;22.10;99.90
23188;DHT22;11762;59.878;17.686;2023-07-13T13:16:52;22.20;99.90
23188;DHT22;11762;59.878;17.686;2023-07-13T13:19:23;22.50;99.90
23188;DHT22;11762;59.878;17.686;2023-07-13T13:21:53;22.40;99.90
23188;DHT22;11762;59.878;17.686;2023-07-13T13:24:24;22.20;99.90
23188;DHT22;11762;59.878;17.686;2023-07-13T13:26:53;22.20;99.90
23188;DHT22;11762;59.878;17.686;2023-07-13T13:29:23;21.90;99.90
23188;DHT22;11762;59.878;17.686;2023-07-13T13:31:50;22.10;99.90
23188;DHT22;11762;59.878;17.686;2023-07-13T13:34:18;22.30;99.90
23188;DHT22;11762;59.878;17.686;2023-07-13T13:36:47;22.30;99.90
23188;DHT22;11762;59.878;17.686;2023-07-13T13:39:25;22.30;99.90
23188;DHT22;11762;59.878;17.686;2023-07-13T13:41:56;22.50;99.90
23188;DHT22;11762;59.878;17.686;2023-07-13T13:44:23;22.50;99.90
23188;DHT22;11762;59.878;17.686;2023-07-13T13:46:52;22.60;99.90
23188;DHT22;11762;59.878;17.686;2023-07-13T13:49:21;22.60;99.90
23188;DHT22;11762;59.878;17.686;2023-07-13T13:51:49;22.60;99.90
23188;DHT22;11762;59.878;17.686;2023-07-13T13:54:18;22.70;99.90
23188;DHT22;11762;59.878;17.686;2023-07-13T13:56:46;22.70;99.90
23188;DHT22;11762;59.878;17.686;2023-07-13T13:59:15;22.60;99.90
23188;DHT22;11762;59.878;17.686;2023-07-13T14:01:45;22.50;99.90
23188;DHT22;11762;59.878;17.686;2023-07-13T14:04:15;22.40;99.90
23188;DHT22;11762;59.878;17.686;2023-07-13T14:06:43;22.20;99.90
23188;DHT22;11762;59.878;17.686;2023-07-13T14:09:13;22.10;99.90
23188;DHT22;11762;59.878;17.686;2023-07-13T14:11:41;21.80;99.90
23188;DHT22;11762;59.878;17.686;2023-07-13T14:14:14;21.70;99.90
23188;DHT22;11762;59.878;17.686;2023-07-13T14:16:43;21.70;99.90
23188;DHT22;11762;59.878;17.686;2023-07-13T14:19:13;21.80;99.90
23188;DHT22;11762;59.878;17.686;2023-07-13T14:21:40;22.00;99.90
23188;DHT22;11762;59.878;17.686;2023-07-13T14:24:07;22.00;99.90
23188;DHT22;11762;59.878;17.686;2023-07-13T14:26:37;22.30;99.90
23188;DHT22;11762;59.878;17.686;2023-07-13T14:29:05;22.50;99.90
23188;DHT22;11762;59.878;17.686;2023-07-13T14:31:37;22.50;99.90
23188;DHT22;11762;59.878;17.686;2023-07-13T14:34:05;22.10;99.90
23188;DHT22;11762;59.878;17.686;2023-07-13T14:36:36;21.90;99.90
23188;DHT22;11762;59.878;17.686;2023-07-13T14:39:12;21.80;99.90
23188;DHT22;11762;59.878;17.686;2023-07-13T14:41:39;22.00;99.90
23188;DHT22;11762;59.878;17.686;2023-07-13T14:44:11;22.30;99.90
23188;DHT22;11762;59.878;17.686;2023-07-13T14:46:39;22.20;99.90
23188;DHT22;11762;59.878;17.686;2023-07-13T14:49:13;22.30;99.90
23188;DHT22;11762;59.878;17.686;2023-07-13T14:51:41;22.30;99.90
23188;DHT22;11762;59.878;17.686;2023-07-13T14:54:10;22.40;99.90
23188;DHT22;11762;59.878;17.686;2023-07-13T14:56:37;22.50;99.90
23188;DHT22;11762;59.878;17.686;2023-07-13T14:59:04;22.40;99.90
23188;DHT22;11762;59.878;17.686;2023-07-13T15:01:33;22.20;99.90
23188;DHT22;11762;59.878;17.686;2023-07-13T15:04:00;21.90;99.90
23188;DHT22;11762;59.878;17.686;2023-07-13T15:06:30;21.90;99.90
23188;DHT22;11762;59.878;17.686;2023-07-13T15:08:57;21.80;99.90
23188;DHT22;11762;59.878;17.686;2023-07-13T15:11:24;21.80;99.90
23188;DHT22;11762;59.878;17.686;2023-07-13T15:13:52;21.40;99.90
23188;DHT22;11762;59.878;17.686;2023-07-13T15:16:22;21.20;99.90
23188;DHT22;11762;59.878;17.686;2023-07-13T15:18:50;21.10;99.90
23188;DHT22;11762;59.878;17.686;2023-07-13T15:21:20;21.10;99.90
23188;DHT22;11762;59.878;17.686;2023-07-13T15:23:50;21.20;99.90
23188;DHT22;11762;59.878;17.686;2023-07-13T15:26:18;21.50;99.90
23188;DHT22;11762;59.878;17.686;2023-07-13T15:28:46;21.60;99.90